Time;durP1;ratioP1;P1;durP2;ratioP2;P2;SDS_P1;SDS_P2;PMS_P1;PMS_P2;Temp;Humidity;BMP_temperature;BMP_pressure;BME280_temperature;BME280_humidity;BME280_pressure;Samples;Min_cycle;Max_cycle;Signal;HPM_P1;HPM_P2
2022/07/21 00:00:20;;;;;;;1.40;0.32;;;;;;;22.30;48.21;98215.09;5089631;28;20088;-74
2022/07/21 00:02:46;;;;;;;0.88;0.20;;;;;;;22.27;47.99;98219.06;5089494;28;20020;-74
2022/07/21 00:05:12;;;;;;;2.60;0.30;;;;;;;22.27;48.11;98213.69;5089525;28;20272;-75
2022/07/21 00:07:38;;;;;;;0.52;0.25;;;;;;;22.26;47.86;98217.44;5089420;28;20020;-74
2022/07/21 00:10:05;;;;;;;0.73;0.22;;;;;;;22.29;47.69;98210.75;5089463;28;20079;-74
2022/07/21 00:12:30;;;;;;;0.20;0.20;;;;;;;22.28;47.95;98209.13;5071782;28;20035;-74
2022/07/21 00:14:56;;;;;;;0.30;0.22;;;;;;;22.31;47.73;98214.88;5089306;28;20061;-74
2022/07/21 00:17:21;;;;;;;0.57;0.30;;;;;;;22.33;47.62;98218.16;5071587;28;20036;-74
2022/07/21 00:19:47;;;;;;;0.95;0.15;;;;;;;22.36;47.49;98224.97;5089223;28;20044;-74
2022/07/21 00:22:12;;;;;;;0.80;0.20;;;;;;;22.35;47.52;98218.72;5089114;28;20020;-74
2022/07/21 00:24:38;;;;;;;1.15;0.40;;;;;;;22.33;47.89;98210.09;5089144;28;20024;-74
2022/07/21 00:27:03;;;;;;;0.60;0.32;;;;;;;22.37;47.76;98213.94;5089034;28;20176;-74
2022/07/21 00:29:29;;;;;;;0.98;0.30;;;;;;;22.37;47.42;98218.53;5089019;28;20044;-74
2022/07/21 00:31:54;;;;;;;0.40;0.30;;;;;;;22.39;47.43;98227.19;5069630;28;20039;-74
2022/07/21 00:34:20;;;;;;;1.02;0.52;;;;;;;22.38;47.73;98215.59;5068871;28;20024;-74
2022/07/21 00:36:46;;;;;;;2.35;0.57;;;;;;;22.37;47.74;98213.94;5069628;28;20093;-74
2022/07/21 00:39:12;;;;;;;0.43;0.25;;;;;;;22.34;47.81;98214.44;5088841;28;20101;-75
2022/07/21 00:41:37;;;;;;;0.77;0.40;;;;;;;22.34;47.71;98221.66;5088501;28;20020;-74
2022/07/21 00:44:03;;;;;;;0.57;0.30;;;;;;;22.35;48.07;98221.44;5088785;28;20032;-73
2022/07/21 00:46:28;;;;;;;1.38;0.47;;;;;;;22.35;48.03;98216.03;5088694;28;20021;-73
2022/07/21 00:48:54;;;;;;;1.10;0.30;;;;;;;22.35;47.83;98210.66;5087626;28;20062;-73
2022/07/21 00:51:19;;;;;;;1.25;0.30;;;;;;;22.34;47.79;98208.19;5088462;28;20039;-73
2022/07/21 00:53:45;;;;;;;0.88;0.40;;;;;;;22.34;47.70;98213.59;5088458;28;20028;-73
2022/07/21 00:56:11;;;;;;;0.82;0.40;;;;;;;22.33;47.78;98203.84;5088385;28;20093;-73
2022/07/21 00:58:39;;;;;;;0.50;0.30;;;;;;;22.34;48.14;98203.66;5088311;28;20051;-73
2022/07/21 01:01:05;;;;;;;1.33;0.60;;;;;;;22.34;48.18;98217.13;5087097;28;20028;-72
2022/07/21 01:03:30;;;;;;;5.07;0.80;;;;;;;22.33;48.08;98209.25;5086090;28;20028;-74
2022/07/21 01:05:58;;;;;;;6.03;0.45;;;;;;;22.32;47.99;98200.34;5087409;28;20062;-71
2022/07/21 01:08:23;;;;;;;5.35;0.52;;;;;;;22.32;47.93;98210.28;5080020;28;20017;-69
2022/07/21 01:10:49;;;;;;;3.10;0.38;;;;;;;22.34;48.18;98219.81;5080897;28;20047;-68
2022/07/21 01:13:14;;;;;;;1.52;0.50;;;;;;;22.34;48.23;98218.97;5082571;28;20088;-68
2022/07/21 01:15:40;;;;;;;2.42;0.40;;;;;;;22.35;47.94;98212.53;5067969;28;20242;-68
2022/07/21 01:18:06;;;;;;;2.58;0.40;;;;;;;22.35;48.16;98210.66;5067767;28;20029;-68
2022/07/21 01:20:37;;;;;;;0.75;0.30;;;;;;;22.36;48.00;98211.50;5067951;28;20072;-68
2022/07/21 01:23:04;;;;;;;1.17;0.32;;;;;;;22.36;48.09;98208.78;5067703;28;20016;-68
2022/07/21 01:25:30;;;;;;;3.30;0.30;;;;;;;22.33;48.09;98209.25;5070724;28;20223;-68
2022/07/21 01:27:55;;;;;;;0.50;0.20;;;;;;;22.32;47.95;98207.59;5067644;28;20016;-68
2022/07/21 01:30:21;;;;;;;4.57;0.38;;;;;;;22.35;47.94;98204.44;5071648;28;20213;-69
2022/07/21 01:32:46;;;;;;;2.92;0.43;;;;;;;22.36;47.88;98206.91;5067594;28;20111;-68
2022/07/21 01:35:15;;;;;;;0.88;0.30;;;;;;;22.37;48.15;98213.94;5067613;28;20040;-68
2022/07/21 01:37:44;;;;;;;1.25;0.30;;;;;;;22.37;48.06;98210.44;5070767;28;20024;-68
2022/07/21 01:42:55;;;;;;;4.13;0.50;;;;;;;22.34;48.21;98217.13;5067360;28;20291;-67
2022/07/21 01:45:22;;;;;;;4.25;0.47;;;;;;;22.32;48.15;98211.13;5067461;28;20222;-68
2022/07/21 01:47:48;;;;;;;0.60;0.28;;;;;;;22.34;48.09;98202.81;5086298;28;20016;-68
2022/07/21 01:50:13;;;;;;;0.50;0.20;;;;;;;22.36;48.10;98206.09;5086166;28;20035;-68
2022/07/21 01:52:39;;;;;;;1.13;0.40;;;;;;;22.37;48.01;98207.75;5079435;28;20024;-68
2022/07/21 01:55:05;;;;;;;0.68;0.40;;;;;;;22.37;47.90;98205.84;5067267;28;20016;-68
2022/07/21 01:57:31;;;;;;;0.52;0.32;;;;;;;22.37;48.02;98200.47;5067021;28;20025;-68
2022/07/21 01:59:56;;;;;;;1.50;0.40;;;;;;;22.40;48.01;98207.28;5067059;28;20146;-68
2022/07/21 02:02:22;;;;;;;0.50;0.40;;;;;;;22.40;47.85;98207.28;5070795;28;20016;-68
2022/07/21 02:04:48;;;;;;;1.30;0.30;;;;;;;22.40;47.95;98209.97;5085930;28;20268;-69
2022/07/21 02:07:14;;;;;;;1.70;0.68;;;;;;;22.38;47.98;98210.19;5085474;28;20019;-69
2022/07/21 02:09:40;;;;;;;0.63;0.47;;;;;;;22.40;47.99;98224.25;5072644;28;20040;-69
2022/07/21 02:12:06;;;;;;;1.50;0.40;;;;;;;22.39;47.94;98208.34;5067060;28;20162;-68
2022/07/21 02:14:31;;;;;;;1.95;0.40;;;;;;;22.39;48.18;98205.66;5067221;28;20092;-68
2022/07/21 02:16:57;;;;;;;2.17;0.30;;;;;;;22.42;47.95;98213.31;5066994;28;20033;-67
2022/07/21 02:19:22;;;;;;;3.45;0.60;;;;;;;22.40;48.26;98207.28;5071777;28;20139;-68
2022/07/21 02:21:48;;;;;;;0.93;0.40;;;;;;;22.38;48.22;98204.00;5067030;28;20226;-68
2022/07/21 02:24:13;;;;;;;0.57;0.30;;;;;;;22.40;48.19;98207.28;5067134;28;20083;-67
2022/07/21 02:26:39;;;;;;;2.95;0.70;;;;;;;22.40;48.25;98207.28;5066952;28;20029;-69
2022/07/21 02:29:05;;;;;;;0.80;0.43;;;;;;;22.37;48.60;98200.47;5067368;28;20040;-68
2022/07/21 02:31:32;;;;;;;1.30;0.32;;;;;;;22.37;48.27;98211.25;5067065;28;20037;-68
2022/07/21 02:33:57;;;;;;;1.15;0.52;;;;;;;22.36;48.61;98203.41;5049274;28;20289;-69
2022/07/21 02:36:23;;;;;;;1.55;0.50;;;;;;;22.34;48.42;98195.56;5067350;28;20036;-69
2022/07/21 02:38:50;;;;;;;0.55;0.32;;;;;;;22.35;48.41;98197.19;5084599;28;20055;-69
2022/07/21 02:41:16;;;;;;;1.05;0.40;;;;;;;22.33;48.61;98193.91;5087203;28;20020;-69
2022/07/21 02:43:41;;;;;;;4.75;0.50;;;;;;;22.36;48.67;98198.81;5085652;28;20146;-68
2022/07/21 02:46:06;;;;;;;1.48;0.40;;;;;;;22.37;48.57;98202.34;5086445;28;20070;-68
2022/07/21 02:48:32;;;;;;;1.25;0.30;;;;;;;22.37;48.46;98199.66;5086915;28;20024;-68
2022/07/21 02:50:57;;;;;;;0.70;0.40;;;;;;;22.39;48.38;98192.97;5086915;28;20024;-69
2022/07/21 02:53:23;;;;;;;0.70;0.40;;;;;;;22.42;48.12;98202.53;5087015;28;20063;-68
2022/07/21 02:55:52;;;;;;;1.02;0.50;;;;;;;22.42;48.30;98193.59;5087016;28;20027;-68
2022/07/21 02:58:28;;;;;;;1.35;0.60;;;;;;;22.40;48.45;98193.81;5086860;28;20032;-69
2022/07/21 03:01:05;;;;;;;0.52;0.43;;;;;;;22.39;48.21;98195.66;5084213;28;20040;-69
2022/07/21 03:03:34;;;;;;;0.32;0.30;;;;;;;22.40;48.59;98194.63;5086880;28;20032;-69
2022/07/21 03:06:00;;;;;;;1.52;0.50;;;;;;;22.39;48.31;98192.16;5086882;28;20048;-68
2022/07/21 03:08:27;;;;;;;0.40;0.30;;;;;;;22.40;48.51;98191.13;5086888;28;20035;-69
2022/07/21 03:10:53;;;;;;;2.95;0.60;;;;;;;22.38;48.53;98199.41;5085946;28;20035;-67
2022/07/21 03:13:18;;;;;;;0.80;0.32;;;;;;;22.41;48.48;98192.75;5089863;28;20035;-69
2022/07/21 03:15:44;;;;;;;0.98;0.50;;;;;;;22.41;48.61;98195.47;5090488;28;20025;-69
2022/07/21 03:18:10;;;;;;;2.00;0.50;;;;;;;22.43;48.43;98184.47;5090475;28;20293;-69
2022/07/21 03:20:38;;;;;;;0.47;0.25;;;;;;;22.45;48.43;98187.75;5090395;28;20265;-68
2022/07/21 03:23:04;;;;;;;1.45;0.45;;;;;;;22.45;48.20;98188.56;5086128;28;20130;-68
2022/07/21 03:25:31;;;;;;;0.65;0.30;;;;;;;22.44;48.41;98181.53;5090277;28;20036;-68
2022/07/21 03:27:57;;;;;;;0.93;0.40;;;;;;;22.45;48.34;98179.66;5090186;28;20040;-68
2022/07/21 03:30:23;;;;;;;0.50;0.30;;;;;;;22.42;48.63;98186.34;5090209;28;20020;-68
2022/07/21 03:32:50;;;;;;;0.55;0.40;;;;;;;22.42;48.41;98189.06;5078931;28;20036;-67
2022/07/21 03:35:15;;;;;;;1.00;0.45;;;;;;;22.43;48.52;98182.56;5069908;28;20095;-67
2022/07/21 03:37:45;;;;;;;0.85;0.38;;;;;;;22.44;48.36;98181.53;5078005;28;20035;-68
2022/07/21 03:40:13;;;;;;;1.55;0.50;;;;;;;22.45;48.27;98183.16;5090000;28;20245;-68
2022/07/21 03:42:38;;;;;;;0.88;0.35;;;;;;;22.46;48.38;98184.81;5089621;28;20094;-68
2022/07/21 03:45:05;;;;;;;0.98;0.40;;;;;;;22.44;48.53;98180.72;5089883;28;20229;-68
2022/07/21 03:47:30;;;;;;;0.60;0.40;;;;;;;22.45;48.57;98183.16;5081679;28;20031;-67
2022/07/21 03:49:55;;;;;;;1.30;0.57;;;;;;;22.43;48.77;98177.19;5069735;28;20226;-74
2022/07/21 03:52:21;;;;;;;0.88;0.40;;;;;;;22.42;48.79;98183.66;5069563;28;20188;-68
2022/07/21 03:54:46;;;;;;;1.63;0.60;;;;;;;22.42;49.19;98183.66;5069678;28;20043;-68
2022/07/21 03:57:12;;;;;;;1.27;0.60;;;;;;;22.38;49.18;98174.34;5069043;28;20100;-66
2022/07/21 03:59:37;;;;;;;5.15;0.47;;;;;;;22.37;49.16;98186.19;5086046;28;20110;-67
2022/07/21 04:02:03;;;;;;;0.80;0.40;;;;;;;22.35;49.38;98186.41;5089471;28;20249;-68
2022/07/21 04:04:28;;;;;;;0.93;0.30;;;;;;;22.33;49.38;98185.00;5089578;28;20225;-68
2022/07/21 04:06:54;;;;;;;0.73;0.40;;;;;;;22.33;49.13;98190.38;5089473;28;20032;-68
2022/07/21 04:09:19;;;;;;;2.20;0.47;;;;;;;22.33;49.19;98180.44;5087644;28;20032;-68
2022/07/21 04:11:45;;;;;;;1.00;0.60;;;;;;;22.34;49.40;98189.34;5089312;28;20249;-68
2022/07/21 04:14:10;;;;;;;2.00;0.47;;;;;;;22.34;49.26;98192.03;5089350;28;20089;-68
2022/07/21 04:16:36;;;;;;;0.90;0.85;;;;;;;22.34;49.41;98192.03;5089266;28;20142;-67
2022/07/21 04:19:01;;;;;;;0.98;0.55;;;;;;;22.30;49.77;98188.97;5082053;28;20066;-67
2022/07/21 04:21:27;;;;;;;0.77;0.47;;;;;;;22.27;49.75;98191.31;5069221;28;20092;-67
2022/07/21 04:23:52;;;;;;;0.57;0.40;;;;;;;22.25;49.37;98181.59;5068959;28;20195;-68
2022/07/21 04:26:18;;;;;;;4.53;0.63;;;;;;;22.29;49.25;98187.34;5069035;28;20070;-68
2022/07/21 04:28:43;;;;;;;0.85;0.50;;;;;;;22.29;49.48;98183.81;5069212;28;20135;-67
2022/07/21 04:31:09;;;;;;;0.93;0.43;;;;;;;22.29;49.30;98181.09;5069285;28;20198;-69
2022/07/21 04:33:35;;;;;;;1.20;0.80;;;;;;;22.30;49.41;98188.97;5088731;28;20024;-67
2022/07/21 04:36:00;;;;;;;0.77;0.60;;;;;;;22.33;49.81;98196.63;5088833;28;20028;-68
2022/07/21 04:38:26;;;;;;;3.00;0.68;;;;;;;22.32;49.89;98189.56;5088650;28;20042;-68
2022/07/21 04:40:51;;;;;;;2.20;0.63;;;;;;;22.30;49.90;98193.53;5088801;28;20028;-68
2022/07/21 04:43:17;;;;;;;2.75;0.73;;;;;;;22.27;50.36;98188.63;5088500;28;20082;-67
2022/07/21 04:45:42;;;;;;;2.03;0.63;;;;;;;22.23;50.16;98190.94;5086587;28;20035;-68
2022/07/21 04:48:08;;;;;;;0.55;0.47;;;;;;;22.17;50.36;98198.06;5088521;28;20283;-68
2022/07/21 04:50:33;;;;;;;1.42;0.63;;;;;;;22.16;50.56;98192.94;5088539;28;20095;-67
2022/07/21 04:52:59;;;;;;;3.38;0.73;;;;;;;22.15;50.30;98193.97;5070841;28;20035;-70
2022/07/21 04:55:25;;;;;;;1.67;0.80;;;;;;;22.15;50.41;98191.28;5072498;28;20098;-69
2022/07/21 04:57:52;;;;;;;1.05;0.68;;;;;;;22.15;50.32;98194.78;5088315;28;20043;-68
2022/07/21 05:00:23;;;;;;;1.88;0.80;;;;;;;22.18;50.17;98193.53;5088397;28;20028;-68
2022/07/21 05:02:50;;;;;;;1.42;0.82;;;;;;;22.20;50.72;98191.41;5088244;28;20020;-67
2022/07/21 05:05:15;;;;;;;1.23;0.77;;;;;;;22.21;50.85;98193.88;5085385;28;20032;-67
2022/07/21 05:07:41;;;;;;;3.10;1.05;;;;;;;22.22;51.10;98194.69;5087331;28;20119;-71
2022/07/21 05:10:09;;;;;;;1.52;0.65;;;;;;;22.24;50.92;98197.97;5088540;28;20028;-68
2022/07/21 05:12:35;;;;;;;1.75;0.90;;;;;;;22.25;50.63;98200.47;5088165;28;20299;-67
2022/07/21 05:15:02;;;;;;;1.60;1.10;;;;;;;22.28;51.18;98192.97;5088179;28;20016;-68
2022/07/21 05:17:27;;;;;;;2.67;1.38;;;;;;;22.27;51.19;98199.41;5083879;28;20039;-68
2022/07/21 05:19:53;;;;;;;3.78;1.10;;;;;;;22.23;51.34;98202.56;5087853;28;20028;-68
2022/07/21 05:22:18;;;;;;;2.13;1.10;;;;;;;22.19;51.50;98195.16;5087882;28;20038;-68
2022/07/21 05:24:44;;;;;;;0.98;0.70;;;;;;;22.14;51.51;98189.63;5088007;28;20093;-71
2022/07/21 05:27:09;;;;;;;0.82;0.70;;;;;;;22.10;51.28;98194.66;5087886;28;20024;-68
2022/07/21 05:29:35;;;;;;;4.32;1.15;;;;;;;22.11;51.59;98193.63;5087945;28;20024;-68
2022/07/21 05:32:00;;;;;;;2.55;1.42;;;;;;;22.07;51.96;98193.22;5085668;28;20051;-68
2022/07/21 05:34:26;;;;;;;3.97;1.17;;;;;;;22.06;51.96;98201.56;5087375;28;20093;-68
2022/07/21 05:36:52;;;;;;;2.05;1.00;;;;;;;22.00;51.99;98213.22;5087746;28;20108;-68
2022/07/21 05:39:18;;;;;;;2.95;1.55;;;;;;;21.97;51.94;98208.31;5087716;28;20051;-67
2022/07/21 05:41:44;;;;;;;2.20;1.05;;;;;;;21.97;51.77;98206.44;5085331;28;20035;-70
2022/07/21 05:44:10;;;;;;;1.67;0.95;;;;;;;22.01;51.66;98204.94;5087731;28;20087;-70
2022/07/21 05:46:35;;;;;;;2.63;0.70;;;;;;;22.06;51.54;98206.94;5087698;28;20036;-70
2022/07/21 05:49:00;;;;;;;1.80;0.88;;;;;;;22.09;51.24;98204.59;5087731;28;20031;-71
2022/07/21 05:51:26;;;;;;;1.95;0.80;;;;;;;22.15;51.11;98208.25;5087546;28;20047;-70
2022/07/21 05:53:51;;;;;;;2.35;0.98;;;;;;;22.17;51.16;98208.84;5082889;28;20020;-70
2022/07/21 05:56:17;;;;;;;4.25;1.20;;;;;;;22.15;51.43;98213.63;5087609;28;20095;-69
2022/07/21 05:58:42;;;;;;;1.90;1.08;;;;;;;22.12;51.57;98211.44;5087449;28;20025;-67
2022/07/21 06:01:08;;;;;;;1.42;0.77;;;;;;;22.11;51.42;98215.16;5087516;28;20031;-68
2022/07/21 06:03:39;;;;;;;1.95;1.00;;;;;;;22.11;51.55;98217.88;5075048;28;20032;-70
2022/07/21 06:06:05;;;;;;;1.85;0.95;;;;;;;22.12;51.42;98218.66;5067413;28;20029;-70
2022/07/21 06:08:31;;;;;;;3.13;1.27;;;;;;;22.13;51.46;98214.94;5067245;28;20021;-69
2022/07/21 06:10:57;;;;;;;1.25;0.82;;;;;;;22.16;51.23;98211.78;5067369;28;20095;-70
2022/07/21 06:13:22;;;;;;;3.97;1.27;;;;;;;22.21;51.54;98214.59;5069361;28;20181;-69
2022/07/21 06:15:48;;;;;;;2.47;1.20;;;;;;;22.26;51.22;98214.72;5067321;28;20025;-68
2022/07/21 06:18:14;;;;;;;1.38;0.80;;;;;;;22.33;50.97;98209.25;5067194;28;20035;-69
2022/07/21 06:20:40;;;;;;;3.63;1.05;;;;;;;22.41;50.59;98208.94;5067302;28;20036;-70
2022/07/21 06:23:06;;;;;;;1.52;0.98;;;;;;;22.45;50.59;98207.44;5067453;28;20222;-68
2022/07/21 06:25:32;;;;;;;2.28;1.17;;;;;;;22.55;50.44;98215.78;5084980;28;20048;-69
2022/07/21 06:27:57;;;;;;;1.83;1.30;;;;;;;22.64;50.28;98218.13;5087209;28;20078;-69
2022/07/21 06:30:23;;;;;;;2.25;1.02;;;;;;;22.67;50.11;98221.19;5087235;28;20218;-69
2022/07/21 06:32:48;;;;;;;1.83;0.95;;;;;;;22.63;50.34;98213.78;5087118;28;20020;-70
2022/07/21 06:35:13;;;;;;;1.48;1.10;;;;;;;22.59;50.21;98223.38;5083071;28;20027;-70
2022/07/21 06:37:44;;;;;;;2.58;1.10;;;;;;;22.56;50.30;98227.38;5086948;28;20095;-70
2022/07/21 06:40:10;;;;;;;3.42;0.70;;;;;;;22.54;50.47;98221.41;5087205;28;20024;-70
2022/07/21 06:42:36;;;;;;;2.90;1.17;;;;;;;22.55;50.33;98210.41;5086856;28;20064;-70
2022/07/21 06:45:01;;;;;;;2.63;1.00;;;;;;;22.58;50.63;98219.88;5083080;28;20074;-70
2022/07/21 06:47:27;;;;;;;0.90;0.65;;;;;;;22.63;50.29;98216.50;5088935;28;20233;-71
2022/07/21 06:49:52;;;;;;;2.28;1.23;;;;;;;22.58;50.29;98221.75;5090886;28;20016;-70
2022/07/21 06:52:17;;;;;;;1.40;1.00;;;;;;;22.58;50.31;98221.75;5078724;28;20268;-71
2022/07/21 06:54:43;;;;;;;2.17;1.30;;;;;;;22.57;50.37;98229.03;5072345;28;20092;-70
2022/07/21 06:57:08;;;;;;;3.65;1.15;;;;;;;22.53;50.39;98225.97;5090610;28;20078;-70
2022/07/21 06:59:34;;;;;;;2.63;1.15;;;;;;;22.48;50.32;98238.50;5090724;28;20269;-70
2022/07/21 07:01:59;;;;;;;3.97;1.38;;;;;;;22.38;50.53;98241.72;5090493;28;20024;-70
2022/07/21 07:04:25;;;;;;;1.45;1.05;;;;;;;22.37;50.93;98245.47;5090906;28;20027;-71
2022/07/21 07:06:52;;;;;;;2.13;1.15;;;;;;;22.37;51.00;98250.84;5086335;28;20024;-70
2022/07/21 07:09:18;;;;;;;1.05;0.80;;;;;;;22.34;50.83;98248.63;5090376;28;20241;-71
2022/07/21 07:11:44;;;;;;;2.90;1.00;;;;;;;22.34;50.84;98252.16;5090395;28;20035;-71
2022/07/21 07:14:10;;;;;;;3.50;1.15;;;;;;;22.32;50.95;98256.94;5090759;28;20145;-71
2022/07/21 07:16:35;;;;;;;2.00;0.98;;;;;;;22.21;51.43;98274.69;5090334;28;20020;-70
2022/07/21 07:19:00;;;;;;;1.90;1.10;;;;;;;22.08;51.81;98274.88;5090531;28;20076;-70
2022/07/21 07:21:26;;;;;;;1.60;1.10;;;;;;;22.03;51.86;98270.19;5088498;28;20028;-70
2022/07/21 07:23:51;;;;;;;1.08;0.80;;;;;;;22.03;52.08;98280.94;5090448;28;20031;-70
2022/07/21 07:26:17;;;;;;;2.35;1.20;;;;;;;22.07;51.83;98276.72;5090192;28;20237;-70
2022/07/21 07:28:42;;;;;;;3.65;1.70;;;;;;;22.12;52.07;98284.16;5090126;28;20118;-70
2022/07/21 07:31:08;;;;;;;4.18;1.05;;;;;;;22.12;51.94;98283.31;5087609;28;20083;-69
2022/07/21 07:33:33;;;;;;;2.83;0.90;;;;;;;22.10;52.09;98288.94;5090407;28;20048;-69
2022/07/21 07:35:59;;;;;;;3.00;0.98;;;;;;;22.08;52.23;98297.22;5090148;28;20020;-69
2022/07/21 07:38:24;;;;;;;1.20;0.75;;;;;;;22.03;52.16;98285.50;5089883;28;20020;-69
2022/07/21 07:40:50;;;;;;;2.97;1.20;;;;;;;21.95;52.33;98287.47;5089222;28;20020;-68
2022/07/21 07:43:15;;;;;;;1.55;1.10;;;;;;;21.92;52.40;98296.00;5072394;28;20107;-70
2022/07/21 07:45:41;;;;;;;1.48;0.95;;;;;;;21.78;52.44;98283.72;5069857;28;20096;-70
2022/07/21 07:48:06;;;;;;;3.90;1.10;;;;;;;21.88;52.70;98302.88;5069686;28;20025;-70
2022/07/21 07:50:32;;;;;;;2.47;0.90;;;;;;;21.91;52.58;98305.09;5069589;28;20044;-70
2022/07/21 07:52:57;;;;;;;2.53;1.40;;;;;;;21.99;53.00;98311.22;5080081;28;20028;-69
2022/07/21 07:55:23;;;;;;;2.00;1.08;;;;;;;21.99;53.32;98316.63;5089709;28;20020;-70
2022/07/21 07:57:48;;;;;;;2.50;1.33;;;;;;;21.91;53.31;98323.16;5089091;28;20020;-70
2022/07/21 08:00:17;;;;;;;2.88;1.20;;;;;;;21.87;53.49;98319.25;5089666;28;20189;-70
2022/07/21 08:02:43;;;;;;;2.38;1.20;;;;;;;21.89;53.10;98327.94;5087267;28;20024;-69
2022/07/21 08:05:09;;;;;;;3.40;0.98;;;;;;;21.92;53.17;98335.53;5089551;28;20074;-70
2022/07/21 08:07:39;;;;;;;3.00;1.30;;;;;;;21.83;53.41;98343.13;5089482;28;20125;-70
2022/07/21 08:10:07;;;;;;;3.50;1.20;;;;;;;21.68;53.89;98350.75;5089745;28;20012;-70
2022/07/21 08:12:33;;;;;;;2.97;1.58;;;;;;;21.66;54.04;98350.13;5086206;28;20040;-68
2022/07/21 08:14:58;;;;;;;2.50;1.67;;;;;;;21.66;54.07;98347.44;5069295;28;20036;-70
2022/07/21 08:17:24;;;;;;;2.45;1.65;;;;;;;21.60;54.01;98355.34;5069119;28;20020;-70
2022/07/21 08:19:50;;;;;;;2.08;1.38;;;;;;;21.56;53.71;98351.41;5069232;28;20148;-69
2022/07/21 08:22:15;;;;;;;5.80;1.90;;;;;;;21.61;53.74;98356.19;5088743;28;20028;-69
2022/07/21 08:24:41;;;;;;;4.57;2.17;;;;;;;21.65;53.72;98362.75;5086659;28;20059;-70
2022/07/21 08:27:07;;;;;;;4.78;2.13;;;;;;;21.66;53.96;98359.00;5088992;28;20095;-69
2022/07/21 08:29:33;;;;;;;8.10;2.50;;;;;;;21.59;53.91;98372.50;5089040;28;20070;-69
2022/07/21 08:31:59;;;;;;;2.63;2.20;;;;;;;21.48;54.03;98375.94;5088938;28;20017;-70
2022/07/21 08:34:25;;;;;;;5.45;2.78;;;;;;;21.43;53.93;98378.44;5084925;28;20012;-70
2022/07/21 08:36:51;;;;;;;3.45;2.40;;;;;;;21.43;53.82;98378.44;5088697;28;20017;-70
2022/07/21 08:39:16;;;;;;;2.08;1.80;;;;;;;21.47;53.85;98385.03;5088727;28;20024;-70
2022/07/21 08:41:42;;;;;;;3.13;2.38;;;;;;;21.43;53.99;98381.13;5088662;28;20017;-69
2022/07/21 08:44:10;;;;;;;2.83;2.22;;;;;;;21.41;54.11;98383.22;5071371;28;20021;-69
2022/07/21 08:46:38;;;;;;;6.53;2.80;;;;;;;21.45;54.19;98387.13;5088572;28;20039;-68
2022/07/21 08:49:03;;;;;;;2.03;1.60;;;;;;;21.45;54.07;98390.66;5086518;28;20024;-66
2022/07/21 08:51:36;;;;;;;4.85;2.40;;;;;;;21.53;54.14;98394.09;5088464;28;20030;-69
2022/07/21 08:54:03;;;;;;;5.85;3.17;;;;;;;21.60;53.95;98403.78;5088492;28;20047;-71
2022/07/21 08:56:29;;;;;;;4.53;2.97;;;;;;;21.63;53.72;98400.66;5088512;28;20035;-73
2022/07/21 08:58:54;;;;;;;9.13;3.40;;;;;;;21.59;53.79;98396.72;5088375;28;20225;-69
2022/07/21 09:01:23;;;;;;;4.10;2.80;;;;;;;21.59;53.46;98391.34;5087322;28;20028;-69
2022/07/21 09:03:51;;;;;;;3.78;2.22;;;;;;;21.72;53.41;98406.59;5086693;28;20028;-69
2022/07/21 09:06:16;;;;;;;4.35;2.85;;;;;;;21.75;53.37;98400.78;5087818;28;20028;-69
2022/07/21 09:08:48;;;;;;;10.38;4.20;;;;;;;21.79;53.05;98407.34;5087902;28;20057;-69
2022/07/21 09:11:13;;;;;;;;;;;;;;;21.86;52.92;98411.84;5088505;28;20184;-69
2022/07/21 09:13:40;;;;;;;5.05;2.45;;;;;;;21.90;52.68;98423.84;5088072;28;19896;-68
2022/07/21 09:16:06;;;;;;;4.88;2.60;;;;;;;21.89;52.31;98423.00;5083724;28;20107;-68
2022/07/21 09:18:32;;;;;;;3.25;2.10;;;;;;;21.92;52.20;98424.41;5087731;28;20032;-69
2022/07/21 09:21:00;;;;;;;3.28;2.15;;;;;;;22.01;51.89;98425.78;5087727;28;20008;-69
2022/07/21 09:23:26;;;;;;;3.05;2.03;;;;;;;22.07;51.79;98426.75;5087209;28;20028;-69
2022/07/21 09:25:54;;;;;;;2.10;1.35;;;;;;;22.12;51.83;98426.94;5083702;28;20039;-68
2022/07/21 09:28:23;;;;;;;3.03;1.98;;;;;;;22.17;52.00;98432.44;5087832;28;20190;-67
2022/07/21 09:30:54;;;;;;;3.50;1.90;;;;;;;22.23;51.90;98445.03;5087869;28;20028;-68
2022/07/21 09:33:33;;;;;;;4.93;1.92;;;;;;;22.34;51.37;98439.94;5087790;28;20263;-69
2022/07/21 09:36:17;;;;;;;3.40;1.92;;;;;;;22.44;50.96;98451.03;5083172;28;20087;-69
2022/07/21 09:38:58;;;;;;;4.75;1.70;;;;;;;22.51;50.42;98449.09;5072160;28;20025;-69
2022/07/21 09:41:25;;;;;;;4.55;1.52;;;;;;;22.54;50.32;98459.44;5086133;28;20024;-69
2022/07/21 09:43:56;;;;;;;4.25;1.45;;;;;;;22.54;50.27;98454.06;5072806;28;20108;-69
2022/07/21 09:46:28;;;;;;;2.72;1.23;;;;;;;22.58;49.84;98457.09;5073082;28;20020;-70
2022/07/21 09:48:56;;;;;;;2.28;1.35;;;;;;;22.65;49.60;98465.13;5071276;28;20013;-69
2022/07/21 09:51:24;;;;;;;1.83;1.30;;;;;;;22.66;49.67;98462.19;5067503;28;20028;-66
2022/07/21 09:53:55;;;;;;;2.80;1.10;;;;;;;22.69;49.49;98458.22;5081499;28;20047;-70
2022/07/21 09:56:21;;;;;;;3.88;1.17;;;;;;;22.69;49.24;98471.72;5080656;28;20036;-69
2022/07/21 09:58:49;;;;;;;3.45;0.98;;;;;;;22.67;49.29;98463.03;5078160;28;20048;-71
2022/07/21 10:01:15;;;;;;;2.33;1.00;;;;;;;22.63;49.11;98459.13;5086951;28;20039;-70
2022/07/21 10:03:44;;;;;;;2.53;0.82;;;;;;;22.57;48.79;98460.84;5083314;28;20024;-69
2022/07/21 10:06:10;;;;;;;2.60;1.30;;;;;;;22.57;48.88;98462.75;5081124;28;20048;-71
2022/07/21 10:08:37;;;;;;;1.33;0.80;;;;;;;22.63;48.96;98467.22;5073532;28;20095;-69
2022/07/21 10:11:03;;;;;;;5.72;0.80;;;;;;;22.69;48.97;98469.81;5086598;28;20052;-70
2022/07/21 10:13:34;;;;;;;4.00;1.00;;;;;;;22.77;48.49;98474.09;5079220;28;20024;-67
2022/07/21 10:16:10;;;;;;;2.28;0.88;;;;;;;22.84;48.60;98476.69;5085174;28;20016;-69
2022/07/21 10:18:53;;;;;;;3.75;1.15;;;;;;;22.90;48.54;98483.91;5069211;28;20052;-69
2022/07/21 10:22:17;;;;;;;1.70;0.95;;;;;;;22.97;47.86;98490.00;5089157;28;20073;-70
2022/07/21 10:24:43;;;;;;;4.07;1.27;;;;;;;22.96;47.53;98492.94;5050177;28;20071;-70
2022/07/21 10:27:13;;;;;;;3.17;1.20;;;;;;;22.89;47.12;98500.28;5083130;28;20040;-70
2022/07/21 10:29:47;;;;;;;6.07;1.50;;;;;;;22.80;47.20;98497.06;5091229;28;20016;-70
2022/07/21 10:32:18;;;;;;;4.70;1.20;;;;;;;22.77;47.33;98494.84;5091255;28;20016;-70
2022/07/21 10:34:44;;;;;;;2.40;1.75;;;;;;;22.78;47.37;98491.91;5091348;28;20024;-70
2022/07/21 10:37:12;;;;;;;3.50;0.98;;;;;;;22.82;46.57;98497.66;5091007;28;20044;-70
2022/07/21 10:39:39;;;;;;;2.85;1.00;;;;;;;22.86;46.68;98491.63;5091107;28;20062;-70
2022/07/21 10:42:15;;;;;;;1.60;0.90;;;;;;;22.96;46.61;98496.44;5090935;28;20028;-71
2022/07/21 10:44:43;;;;;;;1.33;1.00;;;;;;;23.04;46.41;98481.00;5091274;28;20099;-70
2022/07/21 10:47:10;;;;;;;1.85;1.17;;;;;;;23.07;45.98;98489.47;5090970;28;20028;-70
2022/07/21 10:49:45;;;;;;;2.28;1.10;;;;;;;23.12;45.87;98494.16;5091014;28;20236;-70
2022/07/21 10:52:35;;;;;;;2.03;0.90;;;;;;;23.18;45.69;98501.38;5090678;28;20028;-70
2022/07/21 10:55:10;;;;;;;1.85;1.02;;;;;;;23.26;45.55;98505.66;5090798;28;20048;-70
2022/07/21 10:57:42;;;;;;;5.68;1.02;;;;;;;23.32;45.26;98512.81;5090562;28;20091;-70
2022/07/21 11:00:20;;;;;;;1.73;0.80;;;;;;;23.35;45.20;98506.97;5090753;28;20183;-70
2022/07/21 11:03:14;;;;;;;2.45;1.00;;;;;;;23.38;44.78;98503.00;5090697;28;20290;-70
2022/07/21 11:06:05;;;;;;;1.33;1.00;;;;;;;23.40;44.64;98503.56;5077211;28;20221;-70
2022/07/21 11:08:32;;;;;;;3.28;0.70;;;;;;;23.40;44.66;98501.72;5070354;28;20021;-69
2022/07/21 11:11:12;;;;;;;2.50;0.90;;;;;;;23.43;44.55;98511.22;5070250;28;20021;-70
2022/07/21 11:14:04;;;;;;;1.05;0.77;;;;;;;23.39;44.25;98504.63;5070398;28;20032;-70
2022/07/21 11:16:56;;;;;;;1.25;0.85;;;;;;;23.40;44.03;98517.91;5070431;28;20016;-70
2022/07/21 11:19:37;;;;;;;0.93;0.70;;;;;;;23.39;44.00;98523.50;5070987;28;20222;-70
2022/07/21 11:22:13;;;;;;;1.75;1.00;;;;;;;23.39;44.17;98527.06;5090339;28;20028;-69
2022/07/21 11:24:45;;;;;;;2.10;0.98;;;;;;;23.41;44.15;98537.59;5090294;28;20016;-70
2022/07/21 11:27:17;;;;;;;1.83;1.15;;;;;;;23.39;44.21;98540.53;5090172;28;20020;-70
2022/07/21 11:29:44;;;;;;;2.55;0.90;;;;;;;23.37;44.76;98550.75;5090140;28;20237;-70
2022/07/21 11:32:11;;;;;;;1.58;1.00;;;;;;;23.35;44.48;98566.34;5089368;28;20032;-69
2022/07/21 11:34:42;;;;;;;4.03;0.73;;;;;;;23.31;44.83;98560.59;5090033;28;20205;-70
2022/07/21 11:37:09;;;;;;;2.92;0.80;;;;;;;23.22;45.08;98559.25;5089813;28;20088;-69